sensor_id;sensor_type;location;lat;lon;timestamp;temperature;humidity
18948;DHT22;9607;51.600;7.558;2022-09-16T00:00:58;13.60;99.90
18948;DHT22;9607;51.600;7.558;2022-09-16T00:03:25;13.60;99.90
18948;DHT22;9607;51.600;7.558;2022-09-16T00:05:53;13.60;99.90
18948;DHT22;9607;51.600;7.558;2022-09-16T00:08:21;13.60;99.90
18948;DHT22;9607;51.600;7.558;2022-09-16T00:10:48;13.60;99.90
18948;DHT22;9607;51.600;7.558;2022-09-16T00:13:16;13.60;99.90
18948;DHT22;9607;51.600;7.558;2022-09-16T00:15:43;13.60;99.90
18948;DHT22;9607;51.600;7.558;2022-09-16T00:18:10;13.50;99.90
18948;DHT22;9607;51.600;7.558;2022-09-16T00:20:42;13.60;99.90
18948;DHT22;9607;51.600;7.558;2022-09-16T00:23:09;13.60;99.90
18948;DHT22;9607;51.600;7.558;2022-09-16T00:25:37;13.50;99.90
18948;DHT22;9607;51.600;7.558;2022-09-16T00:28:04;13.50;99.90
18948;DHT22;9607;51.600;7.558;2022-09-16T00:30:31;13.50;99.90
18948;DHT22;9607;51.600;7.558;2022-09-16T00:32:58;13.40;99.90
18948;DHT22;9607;51.600;7.558;2022-09-16T00:35:25;13.40;99.90
18948;DHT22;9607;51.600;7.558;2022-09-16T00:37:52;13.40;99.90
18948;DHT22;9607;51.600;7.558;2022-09-16T00:40:19;13.30;99.90
18948;DHT22;9607;51.600;7.558;2022-09-16T00:42:48;13.30;99.90
18948;DHT22;9607;51.600;7.558;2022-09-16T00:45:17;13.20;99.90
18948;DHT22;9607;51.600;7.558;2022-09-16T00:47:47;13.20;99.90
18948;DHT22;9607;51.600;7.558;2022-09-16T00:50:19;13.10;99.90
18948;DHT22;9607;51.600;7.558;2022-09-16T00:52:48;13.10;99.90
18948;DHT22;9607;51.600;7.558;2022-09-16T00:55:25;13.10;99.90
18948;DHT22;9607;51.600;7.558;2022-09-16T00:57:58;13.10;99.90
18948;DHT22;9607;51.600;7.558;2022-09-16T01:00:28;13.10;99.90
18948;DHT22;9607;51.600;7.558;2022-09-16T01:02:55;13.10;99.90
18948;DHT22;9607;51.600;7.558;2022-09-16T01:05:23;13.10;99.90
18948;DHT22;9607;51.600;7.558;2022-09-16T01:07:53;13.10;99.90
18948;DHT22;9607;51.600;7.558;2022-09-16T01:10:21;13.10;99.90
18948;DHT22;9607;51.600;7.558;2022-09-16T01:12:50;13.10;99.90
18948;DHT22;9607;51.600;7.558;2022-09-16T01:15:20;13.00;99.90
18948;DHT22;9607;51.600;7.558;2022-09-16T01:17:58;13.00;99.90
18948;DHT22;9607;51.600;7.558;2022-09-16T01:20:56;13.00;99.90
18948;DHT22;9607;51.600;7.558;2022-09-16T01:26:50;13.00;99.90
18948;DHT22;9607;51.600;7.558;2022-09-16T01:29:50;13.00;99.90
18948;DHT22;9607;51.600;7.558;2022-09-16T01:32:26;13.00;99.90
18948;DHT22;9607;51.600;7.558;2022-09-16T01:35:00;13.00;99.90
18948;DHT22;9607;51.600;7.558;2022-09-16T01:37:35;13.00;99.90
18948;DHT22;9607;51.600;7.558;2022-09-16T01:40:10;13.00;99.90
18948;DHT22;9607;51.600;7.558;2022-09-16T01:42:48;13.00;99.90
18948;DHT22;9607;51.600;7.558;2022-09-16T01:45:23;13.00;99.90
18948;DHT22;9607;51.600;7.558;2022-09-16T01:48:02;13.00;99.90
18948;DHT22;9607;51.600;7.558;2022-09-16T01:50:38;13.00;99.90
18948;DHT22;9607;51.600;7.558;2022-09-16T01:53:11;13.00;99.90
18948;DHT22;9607;51.600;7.558;2022-09-16T01:55:45;13.00;99.90
18948;DHT22;9607;51.600;7.558;2022-09-16T01:58:16;13.10;99.90
18948;DHT22;9607;51.600;7.558;2022-09-16T02:00:47;13.10;99.90
18948;DHT22;9607;51.600;7.558;2022-09-16T02:03:20;13.10;99.90
18948;DHT22;9607;51.600;7.558;2022-09-16T02:05:51;13.10;99.90
18948;DHT22;9607;51.600;7.558;2022-09-16T02:08:21;13.10;99.90
18948;DHT22;9607;51.600;7.558;2022-09-16T02:10:54;13.10;99.90
18948;DHT22;9607;51.600;7.558;2022-09-16T02:13:27;13.10;99.90
18948;DHT22;9607;51.600;7.558;2022-09-16T02:15:58;13.20;99.90
18948;DHT22;9607;51.600;7.558;2022-09-16T02:18:30;13.10;99.90
18948;DHT22;9607;51.600;7.558;2022-09-16T02:21:02;13.20;99.90
18948;DHT22;9607;51.600;7.558;2022-09-16T02:23:33;13.10;99.90
18948;DHT22;9607;51.600;7.558;2022-09-16T02:26:04;13.10;99.90
18948;DHT22;9607;51.600;7.558;2022-09-16T02:28:35;13.20;99.90
18948;DHT22;9607;51.600;7.558;2022-09-16T02:31:06;13.10;99.90
18948;DHT22;9607;51.600;7.558;2022-09-16T02:33:38;13.10;99.90
18948;DHT22;9607;51.600;7.558;2022-09-16T02:36:08;13.10;99.90
18948;DHT22;9607;51.600;7.558;2022-09-16T02:38:40;13.10;99.90
18948;DHT22;9607;51.600;7.558;2022-09-16T02:41:09;13.10;99.90
18948;DHT22;9607;51.600;7.558;2022-09-16T02:43:39;13.10;99.90
18948;DHT22;9607;51.600;7.558;2022-09-16T02:46:13;13.10;99.90
18948;DHT22;9607;51.600;7.558;2022-09-16T02:48:53;13.10;99.90
18948;DHT22;9607;51.600;7.558;2022-09-16T02:51:30;13.10;99.90
18948;DHT22;9607;51.600;7.558;2022-09-16T02:54:03;13.10;99.90
18948;DHT22;9607;51.600;7.558;2022-09-16T02:56:34;13.00;99.90
18948;DHT22;9607;51.600;7.558;2022-09-16T02:59:04;13.10;99.90
18948;DHT22;9607;51.600;7.558;2022-09-16T03:01:34;13.00;99.90
18948;DHT22;9607;51.600;7.558;2022-09-16T03:04:03;13.10;99.90
18948;DHT22;9607;51.600;7.558;2022-09-16T03:06:31;13.00;99.90
18948;DHT22;9607;51.600;7.558;2022-09-16T03:09:02;13.00;99.90
18948;DHT22;9607;51.600;7.558;2022-09-16T03:11:56;13.00;99.90
18948;DHT22;9607;51.600;7.558;2022-09-16T03:14:37;13.00;99.90
18948;DHT22;9607;51.600;7.558;2022-09-16T03:17:18;13.00;99.90
18948;DHT22;9607;51.600;7.558;2022-09-16T03:19:58;13.10;99.90
18948;DHT22;9607;51.600;7.558;2022-09-16T03:22:36;13.10;99.90
18948;DHT22;9607;51.600;7.558;2022-09-16T03:25:15;13.00;99.90
18948;DHT22;9607;51.600;7.558;2022-09-16T03:27:49;13.10;99.90
18948;DHT22;9607;51.600;7.558;2022-09-16T03:30:17;13.10;99.90
18948;DHT22;9607;51.600;7.558;2022-09-16T03:32:50;13.00;99.90
18948;DHT22;9607;51.600;7.558;2022-09-16T03:35:23;13.10;99.90
18948;DHT22;9607;51.600;7.558;2022-09-16T03:37:53;13.00;99.90
18948;DHT22;9607;51.600;7.558;2022-09-16T03:40:21;13.00;99.90
18948;DHT22;9607;51.600;7.558;2022-09-16T03:42:48;13.00;99.90
18948;DHT22;9607;51.600;7.558;2022-09-16T03:45:17;13.00;99.90
18948;DHT22;9607;51.600;7.558;2022-09-16T03:47:45;13.00;99.90
18948;DHT22;9607;51.600;7.558;2022-09-16T03:50:14;13.00;99.90
18948;DHT22;9607;51.600;7.558;2022-09-16T03:52:43;13.00;99.90
18948;DHT22;9607;51.600;7.558;2022-09-16T03:55:10;13.00;99.90
18948;DHT22;9607;51.600;7.558;2022-09-16T03:57:37;13.00;99.90
18948;DHT22;9607;51.600;7.558;2022-09-16T04:00:06;12.90;99.90
18948;DHT22;9607;51.600;7.558;2022-09-16T04:02:34;12.90;99.90
18948;DHT22;9607;51.600;7.558;2022-09-16T04:05:01;12.90;99.90
18948;DHT22;9607;51.600;7.558;2022-09-16T04:07:30;13.00;99.90
18948;DHT22;9607;51.600;7.558;2022-09-16T04:10:17;12.90;99.90
18948;DHT22;9607;51.600;7.558;2022-09-16T04:13:10;13.00;99.90
18948;DHT22;9607;51.600;7.558;2022-09-16T04:15:37;13.00;99.90
18948;DHT22;9607;51.600;7.558;2022-09-16T04:18:04;13.00;99.90
18948;DHT22;9607;51.600;7.558;2022-09-16T04:20:34;12.90;99.90
18948;DHT22;9607;51.600;7.558;2022-09-16T04:23:01;12.90;99.90
18948;DHT22;9607;51.600;7.558;2022-09-16T04:25:30;12.90;99.90
18948;DHT22;9607;51.600;7.558;2022-09-16T04:27:57;12.90;99.90
18948;DHT22;9607;51.600;7.558;2022-09-16T04:30:23;12.90;99.90
18948;DHT22;9607;51.600;7.558;2022-09-16T04:32:52;12.90;99.90
18948;DHT22;9607;51.600;7.558;2022-09-16T04:35:19;12.90;99.90
18948;DHT22;9607;51.600;7.558;2022-09-16T04:37:50;12.90;99.90
18948;DHT22;9607;51.600;7.558;2022-09-16T04:40:17;12.90;99.90
18948;DHT22;9607;51.600;7.558;2022-09-16T04:42:49;12.80;99.90
18948;DHT22;9607;51.600;7.558;2022-09-16T04:45:16;12.90;99.90
18948;DHT22;9607;51.600;7.558;2022-09-16T04:47:43;12.90;99.90
18948;DHT22;9607;51.600;7.558;2022-09-16T04:50:10;12.90;99.90
18948;DHT22;9607;51.600;7.558;2022-09-16T04:52:37;12.90;99.90
18948;DHT22;9607;51.600;7.558;2022-09-16T04:55:04;12.90;99.90
18948;DHT22;9607;51.600;7.558;2022-09-16T04:57:31;12.90;99.90
18948;DHT22;9607;51.600;7.558;2022-09-16T05:00:00;12.80;99.90
18948;DHT22;9607;51.600;7.558;2022-09-16T05:02:27;12.90;99.90
18948;DHT22;9607;51.600;7.558;2022-09-16T05:04:54;12.80;99.90
18948;DHT22;9607;51.600;7.558;2022-09-16T05:07:21;12.80;99.90
18948;DHT22;9607;51.600;7.558;2022-09-16T05:09:48;12.80;99.90
18948;DHT22;9607;51.600;7.558;2022-09-16T05:12:15;12.80;99.90
18948;DHT22;9607;51.600;7.558;2022-09-16T05:14:41;12.80;99.90
18948;DHT22;9607;51.600;7.558;2022-09-16T05:17:10;12.70;99.90
18948;DHT22;9607;51.600;7.558;2022-09-16T05:19:36;12.70;99.90
18948;DHT22;9607;51.600;7.558;2022-09-16T05:22:04;12.70;99.90
18948;DHT22;9607;51.600;7.558;2022-09-16T05:24:33;12.70;99.90
18948;DHT22;9607;51.600;7.558;2022-09-16T05:26:59;12.70;99.90
18948;DHT22;9607;51.600;7.558;2022-09-16T05:29:28;12.80;99.90
18948;DHT22;9607;51.600;7.558;2022-09-16T05:31:55;12.70;99.90
18948;DHT22;9607;51.600;7.558;2022-09-16T05:34:24;12.80;99.90
18948;DHT22;9607;51.600;7.558;2022-09-16T05:36:53;12.70;99.90
18948;DHT22;9607;51.600;7.558;2022-09-16T05:39:21;12.60;99.90
18948;DHT22;9607;51.600;7.558;2022-09-16T05:41:51;12.60;99.90
18948;DHT22;9607;51.600;7.558;2022-09-16T05:44:18;12.50;99.90
18948;DHT22;9607;51.600;7.558;2022-09-16T05:46:44;12.50;99.90
18948;DHT22;9607;51.600;7.558;2022-09-16T05:49:11;12.50;99.90
18948;DHT22;9607;51.600;7.558;2022-09-16T05:51:40;12.40;99.90
18948;DHT22;9607;51.600;7.558;2022-09-16T05:54:07;12.20;99.90
18948;DHT22;9607;51.600;7.558;2022-09-16T05:56:34;11.90;99.90
18948;DHT22;9607;51.600;7.558;2022-09-16T05:59:01;11.70;99.90
18948;DHT22;9607;51.600;7.558;2022-09-16T06:01:30;11.50;99.90
18948;DHT22;9607;51.600;7.558;2022-09-16T06:03:59;11.40;99.90
18948;DHT22;9607;51.600;7.558;2022-09-16T06:06:30;11.30;99.90
18948;DHT22;9607;51.600;7.558;2022-09-16T06:08:59;11.10;99.90
18948;DHT22;9607;51.600;7.558;2022-09-16T06:11:27;11.00;99.90
18948;DHT22;9607;51.600;7.558;2022-09-16T06:13:55;10.90;99.90
18948;DHT22;9607;51.600;7.558;2022-09-16T06:16:23;10.80;99.90
18948;DHT22;9607;51.600;7.558;2022-09-16T06:18:51;10.80;99.90
18948;DHT22;9607;51.600;7.558;2022-09-16T06:21:18;10.70;99.90
18948;DHT22;9607;51.600;7.558;2022-09-16T06:23:45;10.70;99.90
18948;DHT22;9607;51.600;7.558;2022-09-16T06:26:15;10.80;99.90
18948;DHT22;9607;51.600;7.558;2022-09-16T06:28:42;10.80;99.90
18948;DHT22;9607;51.600;7.558;2022-09-16T06:31:11;10.90;99.90
18948;DHT22;9607;51.600;7.558;2022-09-16T06:33:38;10.90;99.90
18948;DHT22;9607;51.600;7.558;2022-09-16T06:36:08;11.00;99.90
18948;DHT22;9607;51.600;7.558;2022-09-16T06:38:35;11.10;99.90
18948;DHT22;9607;51.600;7.558;2022-09-16T06:41:04;11.10;99.90
18948;DHT22;9607;51.600;7.558;2022-09-16T06:43:34;11.20;99.90
18948;DHT22;9607;51.600;7.558;2022-09-16T06:46:02;11.30;99.90
18948;DHT22;9607;51.600;7.558;2022-09-16T06:48:31;11.30;99.90
18948;DHT22;9607;51.600;7.558;2022-09-16T06:50:59;11.50;99.90
18948;DHT22;9607;51.600;7.558;2022-09-16T06:53:27;11.60;99.90
18948;DHT22;9607;51.600;7.558;2022-09-16T06:55:54;11.60;99.90
18948;DHT22;9607;51.600;7.558;2022-09-16T06:58:21;11.70;99.90
18948;DHT22;9607;51.600;7.558;2022-09-16T07:00:49;11.80;99.90
18948;DHT22;9607;51.600;7.558;2022-09-16T07:03:16;11.90;99.90
18948;DHT22;9607;51.600;7.558;2022-09-16T07:05:53;11.90;99.90
18948;DHT22;9607;51.600;7.558;2022-09-16T07:08:20;11.90;99.90
18948;DHT22;9607;51.600;7.558;2022-09-16T07:10:55;11.90;99.90
18948;DHT22;9607;51.600;7.558;2022-09-16T07:13:22;11.90;99.90
18948;DHT22;9607;51.600;7.558;2022-09-16T07:15:50;12.00;99.90
18948;DHT22;9607;51.600;7.558;2022-09-16T07:18:17;12.00;99.90
18948;DHT22;9607;51.600;7.558;2022-09-16T07:20:44;12.10;99.90
18948;DHT22;9607;51.600;7.558;2022-09-16T07:23:11;12.20;99.90
18948;DHT22;9607;51.600;7.558;2022-09-16T07:25:38;12.30;99.90
18948;DHT22;9607;51.600;7.558;2022-09-16T07:28:05;12.30;99.90
18948;DHT22;9607;51.600;7.558;2022-09-16T07:30:32;12.40;99.90
18948;DHT22;9607;51.600;7.558;2022-09-16T07:33:00;12.50;99.90
18948;DHT22;9607;51.600;7.558;2022-09-16T07:35:27;12.60;99.90
18948;DHT22;9607;51.600;7.558;2022-09-16T07:37:54;12.60;99.90
18948;DHT22;9607;51.600;7.558;2022-09-16T07:40:20;12.60;99.90
18948;DHT22;9607;51.600;7.558;2022-09-16T07:42:47;12.60;99.90
18948;DHT22;9607;51.600;7.558;2022-09-16T07:45:14;12.60;99.90
18948;DHT22;9607;51.600;7.558;2022-09-16T07:47:41;12.60;99.90
18948;DHT22;9607;51.600;7.558;2022-09-16T07:50:09;12.60;99.90
18948;DHT22;9607;51.600;7.558;2022-09-16T07:52:36;12.50;99.90
18948;DHT22;9607;51.600;7.558;2022-09-16T07:55:04;12.40;99.90
18948;DHT22;9607;51.600;7.558;2022-09-16T07:57:34;12.40;99.90
18948;DHT22;9607;51.600;7.558;2022-09-16T08:00:02;12.30;99.90
18948;DHT22;9607;51.600;7.558;2022-09-16T08:02:29;12.30;99.90
18948;DHT22;9607;51.600;7.558;2022-09-16T08:04:56;12.40;99.90
18948;DHT22;9607;51.600;7.558;2022-09-16T08:07:24;12.40;99.90
18948;DHT22;9607;51.600;7.558;2022-09-16T08:09:51;12.40;99.90
18948;DHT22;9607;51.600;7.558;2022-09-16T08:12:18;12.50;99.90
18948;DHT22;9607;51.600;7.558;2022-09-16T08:14:45;12.50;99.90
18948;DHT22;9607;51.600;7.558;2022-09-16T08:17:12;12.50;99.90
18948;DHT22;9607;51.600;7.558;2022-09-16T08:19:38;12.50;99.90
18948;DHT22;9607;51.600;7.558;2022-09-16T08:22:06;12.60;99.90
18948;DHT22;9607;51.600;7.558;2022-09-16T08:24:34;12.60;99.90
18948;DHT22;9607;51.600;7.558;2022-09-16T08:27:01;12.70;99.90
18948;DHT22;9607;51.600;7.558;2022-09-16T08:29:28;12.70;99.90
18948;DHT22;9607;51.600;7.558;2022-09-16T08:31:55;12.80;99.90
18948;DHT22;9607;51.600;7.558;2022-09-16T08:34:22;12.90;99.90
18948;DHT22;9607;51.600;7.558;2022-09-16T08:36:50;13.00;99.90
18948;DHT22;9607;51.600;7.558;2022-09-16T08:39:16;13.10;99.90
18948;DHT22;9607;51.600;7.558;2022-09-16T08:44:53;13.20;99.90
18948;DHT22;9607;51.600;7.558;2022-09-16T08:47:34;13.20;99.90
18948;DHT22;9607;51.600;7.558;2022-09-16T08:50:09;13.20;99.90
18948;DHT22;9607;51.600;7.558;2022-09-16T08:52:39;13.20;99.90
18948;DHT22;9607;51.600;7.558;2022-09-16T08:55:13;13.20;99.90
18948;DHT22;9607;51.600;7.558;2022-09-16T08:57:47;13.30;99.90
18948;DHT22;9607;51.600;7.558;2022-09-16T09:00:19;13.50;99.90
18948;DHT22;9607;51.600;7.558;2022-09-16T09:02:50;13.50;99.90
18948;DHT22;9607;51.600;7.558;2022-09-16T09:05:24;13.60;99.90
18948;DHT22;9607;51.600;7.558;2022-09-16T09:08:09;13.60;99.90
18948;DHT22;9607;51.600;7.558;2022-09-16T09:10:44;13.50;99.90
18948;DHT22;9607;51.600;7.558;2022-09-16T09:13:26;13.60;99.90
18948;DHT22;9607;51.600;7.558;2022-09-16T09:16:02;13.70;99.90
18948;DHT22;9607;51.600;7.558;2022-09-16T09:18:42;13.70;99.90
18948;DHT22;9607;51.600;7.558;2022-09-16T09:21:20;13.80;99.90
18948;DHT22;9607;51.600;7.558;2022-09-16T09:24:16;13.80;99.90
18948;DHT22;9607;51.600;7.558;2022-09-16T09:26:48;13.90;99.90
18948;DHT22;9607;51.600;7.558;2022-09-16T09:29:49;14.10;99.90
18948;DHT22;9607;51.600;7.558;2022-09-16T09:32:27;14.30;99.90
18948;DHT22;9607;51.600;7.558;2022-09-16T09:35:06;14.40;99.90
18948;DHT22;9607;51.600;7.558;2022-09-16T09:37:52;14.40;99.90
18948;DHT22;9607;51.600;7.558;2022-09-16T09:40:25;14.50;99.90
18948;DHT22;9607;51.600;7.558;2022-09-16T09:43:04;14.50;99.90
18948;DHT22;9607;51.600;7.558;2022-09-16T09:45:35;14.50;99.90
18948;DHT22;9607;51.600;7.558;2022-09-16T09:48:16;14.50;99.90
18948;DHT22;9607;51.600;7.558;2022-09-16T09:50:45;14.40;99.90
18948;DHT22;9607;51.600;7.558;2022-09-16T09:53:18;14.30;99.90
18948;DHT22;9607;51.600;7.558;2022-09-16T09:55:46;14.30;99.90
18948;DHT22;9607;51.600;7.558;2022-09-16T09:58:21;14.20;99.90
18948;DHT22;9607;51.600;7.558;2022-09-16T10:00:49;14.10;99.90
18948;DHT22;9607;51.600;7.558;2022-09-16T10:03:18;14.10;99.90
18948;DHT22;9607;51.600;7.558;2022-09-16T10:05:46;14.10;99.90
18948;DHT22;9607;51.600;7.558;2022-09-16T10:08:20;14.00;99.90
18948;DHT22;9607;51.600;7.558;2022-09-16T10:10:49;14.00;99.90
18948;DHT22;9607;51.600;7.558;2022-09-16T10:13:17;14.00;99.90
18948;DHT22;9607;51.600;7.558;2022-09-16T10:15:45;14.00;99.90
18948;DHT22;9607;51.600;7.558;2022-09-16T10:18:13;14.00;99.90
18948;DHT22;9607;51.600;7.558;2022-09-16T10:20:56;14.10;99.90
18948;DHT22;9607;51.600;7.558;2022-09-16T10:23:24;14.20;99.90
18948;DHT22;9607;51.600;7.558;2022-09-16T10:26:03;14.40;99.90
18948;DHT22;9607;51.600;7.558;2022-09-16T10:28:31;14.60;99.90
18948;DHT22;9607;51.600;7.558;2022-09-16T10:30:58;14.90;99.90
18948;DHT22;9607;51.600;7.558;2022-09-16T10:33:28;15.20;99.90
18948;DHT22;9607;51.600;7.558;2022-09-16T10:35:58;15.40;99.90
18948;DHT22;9607;51.600;7.558;2022-09-16T10:38:34;15.50;99.90
18948;DHT22;9607;51.600;7.558;2022-09-16T10:41:06;15.50;99.90
18948;DHT22;9607;51.600;7.558;2022-09-16T10:43:37;15.30;99.90
18948;DHT22;9607;51.600;7.558;2022-09-16T10:46:05;15.10;99.90
18948;DHT22;9607;51.600;7.558;2022-09-16T10:48:33;14.40;99.90
18948;DHT22;9607;51.600;7.558;2022-09-16T10:51:04;13.50;99.90
18948;DHT22;9607;51.600;7.558;2022-09-16T10:53:32;12.70;99.90
18948;DHT22;9607;51.600;7.558;2022-09-16T10:56:01;12.20;99.90
18948;DHT22;9607;51.600;7.558;2022-09-16T10:58:28;11.90;99.90
18948;DHT22;9607;51.600;7.558;2022-09-16T11:01:05;11.70;99.90
18948;DHT22;9607;51.600;7.558;2022-09-16T11:03:57;11.70;99.90
18948;DHT22;9607;51.600;7.558;2022-09-16T11:06:38;11.80;99.90
18948;DHT22;9607;51.600;7.558;2022-09-16T11:09:14;11.90;99.90
18948;DHT22;9607;51.600;7.558;2022-09-16T11:12:07;11.90;99.90
18948;DHT22;9607;51.600;7.558;2022-09-16T11:14:45;12.00;99.90
18948;DHT22;9607;51.600;7.558;2022-09-16T11:17:25;12.00;99.90
18948;DHT22;9607;51.600;7.558;2022-09-16T11:20:04;12.20;99.90
18948;DHT22;9607;51.600;7.558;2022-09-16T11:22:42;12.40;99.90
18948;DHT22;9607;51.600;7.558;2022-09-16T11:25:31;12.70;99.90
18948;DHT22;9607;51.600;7.558;2022-09-16T11:28:09;12.90;99.90
18948;DHT22;9607;51.600;7.558;2022-09-16T11:30:44;13.10;99.90
18948;DHT22;9607;51.600;7.558;2022-09-16T11:33:23;13.10;99.90
18948;DHT22;9607;51.600;7.558;2022-09-16T11:36:09;13.00;99.90
18948;DHT22;9607;51.600;7.558;2022-09-16T11:38:49;12.90;99.90
18948;DHT22;9607;51.600;7.558;2022-09-16T11:41:26;12.70;99.90
18948;DHT22;9607;51.600;7.558;2022-09-16T11:44:25;12.50;99.90
18948;DHT22;9607;51.600;7.558;2022-09-16T11:47:05;12.40;99.90
18948;DHT22;9607;51.600;7.558;2022-09-16T11:49:44;12.30;99.90
18948;DHT22;9607;51.600;7.558;2022-09-16T11:52:23;12.30;99.90
18948;DHT22;9607;51.600;7.558;2022-09-16T11:55:13;12.20;99.90
18948;DHT22;9607;51.600;7.558;2022-09-16T11:57:47;12.10;99.90
18948;DHT22;9607;51.600;7.558;2022-09-16T12:00:17;12.10;99.90
18948;DHT22;9607;51.600;7.558;2022-09-16T12:02:50;12.10;99.90
18948;DHT22;9607;51.600;7.558;2022-09-16T12:05:21;12.00;99.90
18948;DHT22;9607;51.600;7.558;2022-09-16T12:07:53;12.10;99.90
18948;DHT22;9607;51.600;7.558;2022-09-16T12:10:25;12.00;99.90
18948;DHT22;9607;51.600;7.558;2022-09-16T12:12:56;12.00;99.90
18948;DHT22;9607;51.600;7.558;2022-09-16T12:15:28;12.00;99.90
18948;DHT22;9607;51.600;7.558;2022-09-16T12:18:00;12.00;99.90
18948;DHT22;9607;51.600;7.558;2022-09-16T12:20:30;11.90;99.90
18948;DHT22;9607;51.600;7.558;2022-09-16T12:23:04;11.80;99.90
18948;DHT22;9607;51.600;7.558;2022-09-16T12:25:37;11.70;99.90
18948;DHT22;9607;51.600;7.558;2022-09-16T12:28:11;11.70;99.90
18948;DHT22;9607;51.600;7.558;2022-09-16T12:30:43;11.80;99.90
18948;DHT22;9607;51.600;7.558;2022-09-16T12:33:15;11.80;99.90
18948;DHT22;9607;51.600;7.558;2022-09-16T12:35:50;11.90;99.90
18948;DHT22;9607;51.600;7.558;2022-09-16T12:38:20;12.00;99.90
18948;DHT22;9607;51.600;7.558;2022-09-16T12:41:01;12.00;99.90
18948;DHT22;9607;51.600;7.558;2022-09-16T12:43:46;12.00;99.90
18948;DHT22;9607;51.600;7.558;2022-09-16T12:46:51;11.90;99.90
18948;DHT22;9607;51.600;7.558;2022-09-16T12:49:54;11.80;99.90
18948;DHT22;9607;51.600;7.558;2022-09-16T12:52:40;11.60;99.90
18948;DHT22;9607;51.600;7.558;2022-09-16T12:55:55;11.40;99.90
18948;DHT22;9607;51.600;7.558;2022-09-16T12:58:45;11.30;99.90
18948;DHT22;9607;51.600;7.558;2022-09-16T13:01:20;11.30;99.90
18948;DHT22;9607;51.600;7.558;2022-09-16T13:03:52;11.20;99.90
18948;DHT22;9607;51.600;7.558;2022-09-16T13:06:25;11.20;99.90
18948;DHT22;9607;51.600;7.558;2022-09-16T13:08:53;11.20;99.90
18948;DHT22;9607;51.600;7.558;2022-09-16T13:11:23;11.30;99.90
18948;DHT22;9607;51.600;7.558;2022-09-16T13:13:53;11.30;99.90
18948;DHT22;9607;51.600;7.558;2022-09-16T13:16:29;11.40;99.90
18948;DHT22;9607;51.600;7.558;2022-09-16T13:19:24;11.50;99.90
18948;DHT22;9607;51.600;7.558;2022-09-16T13:21:56;11.60;99.90
18948;DHT22;9607;51.600;7.558;2022-09-16T13:24:28;11.80;99.90
18948;DHT22;9607;51.600;7.558;2022-09-16T13:26:58;11.90;99.90
18948;DHT22;9607;51.600;7.558;2022-09-16T13:29:37;12.00;99.90
18948;DHT22;9607;51.600;7.558;2022-09-16T13:32:22;12.00;99.90
18948;DHT22;9607;51.600;7.558;2022-09-16T13:34:59;12.20;99.90
18948;DHT22;9607;51.600;7.558;2022-09-16T13:37:27;12.30;99.90
18948;DHT22;9607;51.600;7.558;2022-09-16T13:39:54;12.40;99.90
18948;DHT22;9607;51.600;7.558;2022-09-16T13:42:22;12.50;99.90
18948;DHT22;9607;51.600;7.558;2022-09-16T13:44:50;12.60;99.90
18948;DHT22;9607;51.600;7.558;2022-09-16T13:47:29;12.70;99.90
18948;DHT22;9607;51.600;7.558;2022-09-16T13:50:01;12.70;99.90
18948;DHT22;9607;51.600;7.558;2022-09-16T13:52:32;12.80;99.90
18948;DHT22;9607;51.600;7.558;2022-09-16T13:55:00;12.90;99.90
18948;DHT22;9607;51.600;7.558;2022-09-16T13:57:44;13.00;99.90
18948;DHT22;9607;51.600;7.558;2022-09-16T14:00:17;13.10;99.90
18948;DHT22;9607;51.600;7.558;2022-09-16T14:03:07;13.20;99.90
18948;DHT22;9607;51.600;7.558;2022-09-16T14:05:50;13.30;99.90
18948;DHT22;9607;51.600;7.558;2022-09-16T14:08:28;13.30;99.90
18948;DHT22;9607;51.600;7.558;2022-09-16T14:11:09;13.30;99.90
18948;DHT22;9607;51.600;7.558;2022-09-16T14:13:43;13.30;99.90
18948;DHT22;9607;51.600;7.558;2022-09-16T14:16:15;13.20;99.90
18948;DHT22;9607;51.600;7.558;2022-09-16T14:18:52;13.10;99.90
18948;DHT22;9607;51.600;7.558;2022-09-16T14:21:22;13.10;99.90
18948;DHT22;9607;51.600;7.558;2022-09-16T14:23:49;13.20;99.90
18948;DHT22;9607;51.600;7.558;2022-09-16T14:26:18;13.20;99.90
18948;DHT22;9607;51.600;7.558;2022-09-16T14:28:46;13.20;99.90
18948;DHT22;9607;51.600;7.558;2022-09-16T14:32:14;13.30;99.90
18948;DHT22;9607;51.600;7.558;2022-09-16T14:36:25;13.20;99.90
18948;DHT22;9607;51.600;7.558;2022-09-16T14:39:15;13.30;99.90
18948;DHT22;9607;51.600;7.558;2022-09-16T14:41:47;13.40;99.90
18948;DHT22;9607;51.600;7.558;2022-09-16T14:44:21;13.50;99.90
18948;DHT22;9607;51.600;7.558;2022-09-16T14:46:53;13.60;99.90
18948;DHT22;9607;51.600;7.558;2022-09-16T14:49:22;13.70;99.90
18948;DHT22;9607;51.600;7.558;2022-09-16T14:51:52;13.70;99.90
18948;DHT22;9607;51.600;7.558;2022-09-16T14:54:21;13.80;99.90
18948;DHT22;9607;51.600;7.558;2022-09-16T14:56:59;13.90;99.90
18948;DHT22;9607;51.600;7.558;2022-09-16T14:59:31;13.90;99.90
18948;DHT22;9607;51.600;7.558;2022-09-16T15:02:00;14.00;99.90
18948;DHT22;9607;51.600;7.558;2022-09-16T15:04:32;14.10;99.90
18948;DHT22;9607;51.600;7.558;2022-09-16T15:07:06;14.20;99.90
18948;DHT22;9607;51.600;7.558;2022-09-16T15:09:38;14.20;99.90
18948;DHT22;9607;51.600;7.558;2022-09-16T15:12:17;14.40;99.90
18948;DHT22;9607;51.600;7.558;2022-09-16T15:14:46;14.50;99.90
18948;DHT22;9607;51.600;7.558;2022-09-16T15:17:16;14.50;99.90
18948;DHT22;9607;51.600;7.558;2022-09-16T15:19:49;14.60;99.90
18948;DHT22;9607;51.600;7.558;2022-09-16T15:22:17;14.60;99.90
18948;DHT22;9607;51.600;7.558;2022-09-16T15:24:46;14.80;99.90
18948;DHT22;9607;51.600;7.558;2022-09-16T15:27:20;14.80;99.90
18948;DHT22;9607;51.600;7.558;2022-09-16T15:29:53;15.00;99.90
18948;DHT22;9607;51.600;7.558;2022-09-16T15:32:22;15.10;99.90
18948;DHT22;9607;51.600;7.558;2022-09-16T15:35:11;15.00;99.90
18948;DHT22;9607;51.600;7.558;2022-09-16T15:37:41;15.00;99.90
18948;DHT22;9607;51.600;7.558;2022-09-16T15:40:29;15.00;99.90
18948;DHT22;9607;51.600;7.558;2022-09-16T15:43:25;15.20;99.90
18948;DHT22;9607;51.600;7.558;2022-09-16T15:46:00;15.80;99.90
18948;DHT22;9607;51.600;7.558;2022-09-16T15:51:08;17.10;99.90
18948;DHT22;9607;51.600;7.558;2022-09-16T15:56:20;19.20;99.90
18948;DHT22;9607;51.600;7.558;2022-09-16T15:58:55;20.40;99.90
18948;DHT22;9607;51.600;7.558;2022-09-16T16:01:39;21.40;99.90
18948;DHT22;9607;51.600;7.558;2022-09-16T16:04:09;21.10;99.90
18948;DHT22;9607;51.600;7.558;2022-09-16T16:06:49;20.30;99.90
18948;DHT22;9607;51.600;7.558;2022-09-16T16:17:02;16.60;99.90
18948;DHT22;9607;51.600;7.558;2022-09-16T16:19:30;16.00;99.90
18948;DHT22;9607;51.600;7.558;2022-09-16T16:21:57;15.50;99.90
18948;DHT22;9607;51.600;7.558;2022-09-16T16:24:26;15.20;99.90
18948;DHT22;9607;51.600;7.558;2022-09-16T16:26:54;15.50;99.90
18948;DHT22;9607;51.600;7.558;2022-09-16T16:29:22;16.00;99.90
18948;DHT22;9607;51.600;7.558;2022-09-16T16:32:08;16.00;99.90
18948;DHT22;9607;51.600;7.558;2022-09-16T16:34:38;15.80;99.90
18948;DHT22;9607;51.600;7.558;2022-09-16T16:37:06;15.60;99.90
18948;DHT22;9607;51.600;7.558;2022-09-16T16:39:36;16.10;99.90